PWSweather.com
Personal Weather Stations
Station Observations
KWAWINTH17
Edelweiss Bluff, Winthrop, WA 98862

Edelweiss BluffWinthrop, WA 98862

Lat: 48.558056, Lon: -120.34

Elevation: 2129

Station Type: Davis Vantage Vue (Wireless)

High Low Average
Temperature 44.2°F6.8°C 35.4°F1.9°C 38.9°F3.8°C
Dew Point 40.8°F4.9°C 34.3°F1.3°C 37.5°F3.1°C
Winds 2.0 mph 3.2 kmh Calm Calm Calm SSWCalm SSW
Wind Gusts 6.0 mph9.7 kmh -- 1.0 mph1.6 kmh
Humidity 98% 80% 95%
Pressure 29.75 in1007.5 mb 29.45 in997.3 mb -
Precipitation 0.47 in11.9 mm - -
Hour Temp Dew Point Humidity Winds Wind Gusts Pressure Precip Precip Rate Daily Precip Total
12:00 AM 40.6°F4.8°C 39.8°F4.3°C 97% Calm Calm -- 29.49 in998.6 mb 0.02 in0.5 mm 0.00 in0.0 mm 0.02 in0.5 mm
12:05 AM 40.6°F4.8°C 39.8°F4.3°C 97% Calm Calm -- 29.48 in998.3 mb 0.02 in0.5 mm 0.00 in0.0 mm 0.02 in0.5 mm
12:10 AM 40.5°F4.7°C 39.7°F4.3°C 97% Calm Calm -- 29.48 in998.3 mb 0.02 in0.5 mm 0.00 in0.0 mm 0.02 in0.5 mm
12:15 AM 40.4°F4.7°C 39.6°F4.2°C 97% Calm Calm -- 29.47 in998.0 mb 0.02 in0.5 mm 0.00 in0.0 mm 0.02 in0.5 mm
12:20 AM 40.4°F4.7°C 39.6°F4.2°C 97% Calm Calm -- 29.47 in998.0 mb 0.02 in0.5 mm 0.00 in0.0 mm 0.02 in0.5 mm
12:25 AM 40.5°F4.7°C 39.7°F4.3°C 97% Calm Calm -- 29.47 in998.0 mb 0.02 in0.5 mm 0.00 in0.0 mm 0.03 in0.8 mm
12:30 AM 40.4°F4.7°C 39.6°F4.2°C 97% Calm Calm -- 29.47 in998.0 mb 0.02 in0.5 mm 0.00 in0.0 mm 0.03 in0.8 mm
12:35 AM 40.4°F4.7°C 39.6°F4.2°C 97% Calm Calm 1.0 mph1.6 kmh 29.47 in998.0 mb 0.02 in0.5 mm 0.00 in0.0 mm 0.03 in0.8 mm
12:40 AM 40.3°F4.6°C 39.5°F4.2°C 97% Calm Calm -- 29.47 in998.0 mb 0.02 in0.5 mm 0.00 in0.0 mm 0.03 in0.8 mm
12:45 AM 40.3°F4.6°C 39.5°F4.2°C 97% Calm Calm -- 29.47 in998.0 mb 0.02 in0.5 mm 0.00 in0.0 mm 0.03 in0.8 mm
12:50 AM 40.2°F4.6°C 39.4°F4.1°C 97% Calm Calm -- 29.47 in998.0 mb 0.02 in0.5 mm 0.00 in0.0 mm 0.03 in0.8 mm
12:55 AM 40.1°F4.5°C 39.3°F4.1°C 97% Calm Calm -- 29.46 in997.6 mb 0.02 in0.5 mm 0.00 in0.0 mm 0.04 in1.0 mm
01:00 AM 40.1°F4.5°C 39.3°F4.1°C 97% Calm Calm -- 29.46 in997.6 mb 0.02 in0.5 mm 0.00 in0.0 mm 0.04 in1.0 mm
01:05 AM 40.1°F4.5°C 39.3°F4.1°C 97% Calm Calm -- 29.46 in997.6 mb 0.03 in0.8 mm 0.12 in3.0 mm 0.05 in1.3 mm
01:10 AM 40.1°F4.5°C 39.3°F4.1°C 97% Calm Calm -- 29.46 in997.6 mb 0.02 in0.5 mm 0.00 in0.0 mm 0.05 in1.3 mm
01:15 AM 40.1°F4.5°C 39.3°F4.1°C 97% Calm Calm -- 29.46 in997.6 mb 0.03 in0.8 mm 0.12 in3.0 mm 0.06 in1.5 mm
01:20 AM 40.0°F4.4°C 39.2°F4.0°C 97% Calm Calm -- 29.45 in997.3 mb 0.03 in0.8 mm 0.00 in0.0 mm 0.06 in1.5 mm
01:25 AM 40.0°F4.4°C 39.2°F4.0°C 97% Calm Calm 1.0 mph1.6 kmh 29.45 in997.3 mb 0.02 in0.5 mm 0.00 in0.0 mm 0.06 in1.5 mm
01:30 AM 40.0°F4.4°C 39.2°F4.0°C 97% Calm Calm -- 29.45 in997.3 mb 0.03 in0.8 mm 0.12 in3.0 mm 0.06 in1.5 mm
01:35 AM 40.0°F4.4°C 39.2°F4.0°C 97% Calm Calm -- 29.45 in997.3 mb 0.03 in0.8 mm 0.00 in0.0 mm 0.06 in1.5 mm
01:40 AM 39.9°F4.4°C 39.1°F3.9°C 97% Calm Calm -- 29.45 in997.3 mb 0.04 in1.0 mm 0.12 in3.0 mm 0.07 in1.8 mm
01:45 AM 39.9°F4.4°C 39.1°F3.9°C 97% Calm Calm -- 29.45 in997.3 mb 0.05 in1.3 mm 0.12 in3.0 mm 0.08 in2.0 mm
01:50 AM 39.9°F4.4°C 39.1°F3.9°C 97% Calm Calm -- 29.45 in997.3 mb 0.06 in1.5 mm 0.12 in3.0 mm 0.09 in2.3 mm
01:55 AM 39.8°F4.3°C 39.0°F3.9°C 97% Calm Calm -- 29.45 in997.3 mb 0.07 in1.8 mm 0.12 in3.0 mm 0.11 in2.8 mm
02:00 AM 39.8°F4.3°C 39.0°F3.9°C 97% Calm Calm -- 29.45 in997.3 mb 0.08 in2.0 mm 0.01 in0.3 mm 0.12 in3.0 mm
02:05 AM 39.7°F4.3°C 38.9°F3.8°C 97% Calm Calm -- 29.45 in997.3 mb 0.08 in2.0 mm 0.00 in0.0 mm 0.13 in3.3 mm
02:10 AM 39.8°F4.3°C 39.2°F4.0°C 98% Calm Calm -- 29.45 in997.3 mb 0.09 in2.3 mm 0.12 in3.0 mm 0.14 in3.6 mm
02:15 AM 39.8°F4.3°C 39.2°F4.0°C 98% Calm Calm -- 29.45 in997.3 mb 0.09 in2.3 mm 0.00 in0.0 mm 0.15 in3.8 mm
02:20 AM 39.8°F4.3°C 39.2°F4.0°C 98% Calm Calm -- 29.45 in997.3 mb 0.11 in2.8 mm 0.24 in6.1 mm 0.17 in4.3 mm
02:25 AM 39.7°F4.3°C 39.1°F3.9°C 98% Calm Calm 1.0 mph1.6 kmh 29.45 in997.3 mb 0.12 in3.0 mm 0.12 in3.0 mm 0.17 in4.3 mm
02:30 AM 39.6°F4.2°C 39.0°F3.9°C 98% Calm Calm -- 29.46 in997.6 mb 0.12 in3.0 mm 0.00 in0.0 mm 0.18 in4.6 mm
02:35 AM 39.5°F4.2°C 38.9°F3.8°C 98% Calm Calm -- 29.46 in997.6 mb 0.12 in3.0 mm 0.00 in0.0 mm 0.18 in4.6 mm
02:40 AM 39.4°F4.1°C 38.6°F3.7°C 97% Calm Calm -- 29.45 in997.3 mb 0.12 in3.0 mm 0.00 in0.0 mm 0.19 in4.8 mm
02:45 AM 39.4°F4.1°C 38.6°F3.7°C 97% Calm Calm -- 29.45 in997.3 mb 0.12 in3.0 mm 0.00 in0.0 mm 0.20 in5.1 mm
02:50 AM 39.3°F4.1°C 38.7°F3.7°C 98% Calm Calm -- 29.45 in997.3 mb 0.10 in2.5 mm 0.00 in0.0 mm 0.20 in5.1 mm
02:55 AM 39.2°F4.0°C 38.4°F3.6°C 97% Calm Calm 1.0 mph1.6 kmh 29.45 in997.3 mb 0.09 in2.3 mm 0.00 in0.0 mm 0.20 in5.1 mm
03:00 AM 39.0°F3.9°C 38.2°F3.4°C 97% Calm Calm -- 29.46 in997.6 mb 0.09 in2.3 mm 0.00 in0.0 mm 0.21 in5.3 mm
03:05 AM 38.8°F3.8°C 38.0°F3.3°C 97% Calm Calm -- 29.45 in997.3 mb 0.09 in2.3 mm 0.00 in0.0 mm 0.21 in5.3 mm
03:10 AM 38.6°F3.7°C 37.8°F3.2°C 97% Calm Calm -- 29.45 in997.3 mb 0.08 in2.0 mm 0.00 in0.0 mm 0.22 in5.6 mm
03:15 AM 38.5°F3.6°C 37.7°F3.2°C 97% Calm Calm -- 29.45 in997.3 mb 0.08 in2.0 mm 0.00 in0.0 mm 0.23 in5.8 mm
03:20 AM 38.5°F3.6°C 37.7°F3.2°C 97% Calm Calm -- 29.45 in997.3 mb 0.06 in1.5 mm 0.00 in0.0 mm 0.23 in5.8 mm
03:25 AM 38.5°F3.6°C 37.7°F3.2°C 97% Calm Calm -- 29.45 in997.3 mb 0.06 in1.5 mm 0.00 in0.0 mm 0.23 in5.8 mm
03:30 AM 38.5°F3.6°C 37.9°F3.3°C 98% Calm Calm -- 29.45 in997.3 mb 0.05 in1.3 mm 0.00 in0.0 mm 0.23 in5.8 mm
03:35 AM 38.4°F3.6°C 37.6°F3.1°C 97% Calm Calm -- 29.45 in997.3 mb 0.06 in1.5 mm 0.12 in3.0 mm 0.24 in6.1 mm
03:40 AM 38.4°F3.6°C 37.8°F3.2°C 98% Calm Calm -- 29.45 in997.3 mb 0.05 in1.3 mm 0.00 in0.0 mm 0.24 in6.1 mm
03:45 AM 38.3°F3.5°C 37.7°F3.2°C 98% Calm Calm -- 29.45 in997.3 mb 0.04 in1.0 mm 0.00 in0.0 mm 0.24 in6.1 mm
03:50 AM 38.3°F3.5°C 37.7°F3.2°C 98% Calm Calm -- 29.45 in997.3 mb 0.05 in1.3 mm 0.12 in3.0 mm 0.24 in6.1 mm
03:55 AM 38.3°F3.5°C 37.7°F3.2°C 98% Calm Calm 1.0 mph1.6 kmh 29.46 in997.6 mb 0.04 in1.0 mm 0.00 in0.0 mm 0.24 in6.1 mm
04:00 AM 38.3°F3.5°C 37.7°F3.2°C 98% Calm Calm -- 29.46 in997.6 mb 0.03 in0.8 mm 0.00 in0.0 mm 0.24 in6.1 mm
04:05 AM 38.4°F3.6°C 37.8°F3.2°C 98% Calm Calm -- 29.46 in997.6 mb 0.03 in0.8 mm 0.00 in0.0 mm 0.24 in6.1 mm
04:10 AM 38.4°F3.6°C 37.8°F3.2°C 98% Calm Calm -- 29.46 in997.6 mb 0.02 in0.5 mm 0.00 in0.0 mm 0.24 in6.1 mm
04:15 AM 38.4°F3.6°C 37.8°F3.2°C 98% Calm Calm -- 29.46 in997.6 mb 0.02 in0.5 mm 0.00 in0.0 mm 0.24 in6.1 mm
04:20 AM 38.3°F3.5°C 37.7°F3.2°C 98% Calm Calm -- 29.46 in997.6 mb 0.02 in0.5 mm 0.00 in0.0 mm 0.25 in6.4 mm
04:25 AM 38.4°F3.6°C 37.8°F3.2°C 98% Calm Calm -- 29.47 in998.0 mb 0.02 in0.5 mm 0.00 in0.0 mm 0.25 in6.4 mm
04:30 AM 38.3°F3.5°C 37.7°F3.2°C 98% Calm Calm -- 29.46 in997.6 mb 0.02 in0.5 mm 0.00 in0.0 mm 0.25 in6.4 mm
04:35 AM 38.1°F3.4°C 37.5°F3.1°C 98% Calm Calm 1.0 mph1.6 kmh 29.46 in997.6 mb 0.02 in0.5 mm 0.00 in0.0 mm 0.26 in6.6 mm
04:40 AM 38.0°F3.3°C 37.4°F3.0°C 98% Calm Calm 1.0 mph1.6 kmh 29.46 in997.6 mb 0.02 in0.5 mm 0.00 in0.0 mm 0.26 in6.6 mm
04:45 AM 38.0°F3.3°C 37.2°F2.9°C 97% Calm Calm 1.0 mph1.6 kmh 29.46 in997.6 mb 0.03 in0.8 mm 0.12 in3.0 mm 0.27 in6.9 mm
04:50 AM 37.8°F3.2°C 37.0°F2.8°C 97% Calm Calm 2.0 mph3.2 kmh 29.46 in997.6 mb 0.02 in0.5 mm 0.00 in0.0 mm 0.27 in6.9 mm
04:55 AM 37.6°F3.1°C 36.8°F2.7°C 97% Calm Calm 1.0 mph1.6 kmh 29.46 in997.6 mb 0.02 in0.5 mm 0.00 in0.0 mm 0.27 in6.9 mm
05:00 AM 37.5°F3.1°C 36.7°F2.6°C 97% Calm Calm 2.0 mph3.2 kmh 29.47 in998.0 mb 0.03 in0.8 mm 0.01 in0.3 mm 0.28 in7.1 mm
05:05 AM 37.5°F3.1°C 36.7°F2.6°C 97% Calm Calm 2.0 mph3.2 kmh 29.47 in998.0 mb 0.03 in0.8 mm 0.00 in0.0 mm 0.28 in7.1 mm
05:10 AM 37.4°F3.0°C 36.6°F2.6°C 97% Calm Calm 1.0 mph1.6 kmh 29.46 in997.6 mb 0.03 in0.8 mm 0.00 in0.0 mm 0.28 in7.1 mm
05:15 AM 37.3°F2.9°C 36.5°F2.5°C 97% Calm Calm 1.0 mph1.6 kmh 29.46 in997.6 mb 0.04 in1.0 mm 0.12 in3.0 mm 0.28 in7.1 mm
05:20 AM 37.3°F2.9°C 36.5°F2.5°C 97% Calm Calm 1.0 mph1.6 kmh 29.46 in997.6 mb 0.03 in0.8 mm 0.00 in0.0 mm 0.28 in7.1 mm
05:25 AM 37.1°F2.8°C 36.3°F2.4°C 97% Calm Calm 3.0 mph4.8 kmh 29.46 in997.6 mb 0.03 in0.8 mm 0.00 in0.0 mm 0.28 in7.1 mm
05:30 AM 37.0°F2.8°C 36.2°F2.3°C 97% Calm Calm 1.0 mph1.6 kmh 29.46 in997.6 mb 0.04 in1.0 mm 0.12 in3.0 mm 0.29 in7.4 mm
05:35 AM 37.0°F2.8°C 36.2°F2.3°C 97% Calm Calm -- 29.46 in997.6 mb 0.03 in0.8 mm 0.00 in0.0 mm 0.29 in7.4 mm
05:40 AM 37.1°F2.8°C 36.3°F2.4°C 97% Calm Calm -- 29.46 in997.6 mb 0.03 in0.8 mm 0.00 in0.0 mm 0.29 in7.4 mm
05:45 AM 37.1°F2.8°C 36.3°F2.4°C 97% 1.0 mph N1.6 kmh N 1.0 mph1.6 kmh 29.46 in997.6 mb 0.03 in0.8 mm 0.00 in0.0 mm 0.30 in7.6 mm
05:50 AM 36.9°F2.7°C 36.1°F2.3°C 97% Calm Calm 2.0 mph3.2 kmh 29.46 in997.6 mb 0.03 in0.8 mm 0.00 in0.0 mm 0.30 in7.6 mm
05:55 AM 36.9°F2.7°C 36.1°F2.3°C 97% Calm Calm 1.0 mph1.6 kmh 29.46 in997.6 mb 0.03 in0.8 mm 0.00 in0.0 mm 0.30 in7.6 mm
06:00 AM 36.8°F2.7°C 36.0°F2.2°C 97% Calm Calm -- 29.46 in997.6 mb 0.02 in0.5 mm 0.00 in0.0 mm 0.30 in7.6 mm
06:05 AM 36.8°F2.7°C 36.0°F2.2°C 97% Calm Calm 1.0 mph1.6 kmh 29.47 in998.0 mb 0.02 in0.5 mm 0.00 in0.0 mm 0.30 in7.6 mm
06:10 AM 37.0°F2.8°C 36.4°F2.4°C 98% Calm Calm -- 29.47 in998.0 mb 0.02 in0.5 mm 0.00 in0.0 mm 0.30 in7.6 mm
06:15 AM 36.9°F2.7°C 36.3°F2.4°C 98% Calm Calm 1.0 mph1.6 kmh 29.47 in998.0 mb 0.02 in0.5 mm 0.00 in0.0 mm 0.30 in7.6 mm
06:20 AM 36.9°F2.7°C 36.3°F2.4°C 98% Calm Calm -- 29.47 in998.0 mb 0.02 in0.5 mm 0.00 in0.0 mm 0.30 in7.6 mm
06:25 AM 37.0°F2.8°C 36.4°F2.4°C 98% Calm Calm -- 29.47 in998.0 mb 0.02 in0.5 mm 0.00 in0.0 mm 0.30 in7.6 mm
06:30 AM 37.0°F2.8°C 36.4°F2.4°C 98% Calm Calm -- 29.47 in998.0 mb 0.02 in0.5 mm 0.00 in0.0 mm 0.31 in7.9 mm
06:35 AM 37.2°F2.9°C 36.6°F2.6°C 98% Calm Calm -- 29.47 in998.0 mb 0.02 in0.5 mm 0.00 in0.0 mm 0.31 in7.9 mm
06:40 AM 37.1°F2.8°C 36.5°F2.5°C 98% Calm Calm -- 29.47 in998.0 mb 0.02 in0.5 mm 0.00 in0.0 mm 0.31 in7.9 mm
06:45 AM 37.2°F2.9°C 36.6°F2.6°C 98% Calm Calm -- 29.47 in998.0 mb 0.02 in0.5 mm 0.00 in0.0 mm 0.31 in7.9 mm
06:50 AM 37.2°F2.9°C 36.6°F2.6°C 98% Calm Calm -- 29.47 in998.0 mb 0.02 in0.5 mm 0.00 in0.0 mm 0.32 in8.1 mm
06:55 AM 37.2°F2.9°C 36.6°F2.6°C 98% Calm Calm -- 29.47 in998.0 mb 0.02 in0.5 mm 0.00 in0.0 mm 0.32 in8.1 mm
07:00 AM 37.2°F2.9°C 36.6°F2.6°C 98% Calm Calm -- 29.46 in997.6 mb 0.02 in0.5 mm 0.00 in0.0 mm 0.32 in8.1 mm
07:05 AM 37.1°F2.8°C 36.5°F2.5°C 98% Calm Calm 1.0 mph1.6 kmh 29.46 in997.6 mb 0.02 in0.5 mm 0.00 in0.0 mm 0.32 in8.1 mm
07:10 AM 37.2°F2.9°C 36.6°F2.6°C 98% Calm Calm 1.0 mph1.6 kmh 29.46 in997.6 mb 0.02 in0.5 mm 0.00 in0.0 mm 0.32 in8.1 mm
07:15 AM 37.4°F3.0°C 36.8°F2.7°C 98% Calm Calm -- 29.46 in997.6 mb 0.02 in0.5 mm 0.00 in0.0 mm 0.32 in8.1 mm
07:20 AM 37.6°F3.1°C 37.0°F2.8°C 98% Calm Calm -- 29.46 in997.6 mb 0.02 in0.5 mm 0.00 in0.0 mm 0.32 in8.1 mm
07:25 AM 37.5°F3.1°C 36.9°F2.7°C 98% Calm Calm -- 29.46 in997.6 mb 0.02 in0.5 mm 0.00 in0.0 mm 0.32 in8.1 mm
07:30 AM 37.6°F3.1°C 37.0°F2.8°C 98% Calm Calm -- 29.47 in998.0 mb 0.02 in0.5 mm 0.00 in0.0 mm 0.32 in8.1 mm
07:35 AM 37.5°F3.1°C 36.9°F2.7°C 98% Calm Calm 1.0 mph1.6 kmh 29.47 in998.0 mb 0.01 in0.3 mm 0.00 in0.0 mm 0.32 in8.1 mm
07:40 AM 37.6°F3.1°C 37.0°F2.8°C 98% Calm Calm -- 29.47 in998.0 mb 0.01 in0.3 mm 0.00 in0.0 mm 0.32 in8.1 mm
07:45 AM 37.6°F3.1°C 37.0°F2.8°C 98% Calm Calm -- 29.47 in998.0 mb 0.02 in0.5 mm 0.12 in3.0 mm 0.33 in8.4 mm
07:50 AM 37.7°F3.2°C 37.1°F2.8°C 98% Calm Calm -- 29.47 in998.0 mb 0.01 in0.3 mm 0.00 in0.0 mm 0.33 in8.4 mm
07:55 AM 37.8°F3.2°C 37.2°F2.9°C 98% Calm Calm -- 29.47 in998.0 mb 0.02 in0.5 mm 0.12 in3.0 mm 0.34 in8.6 mm
08:00 AM 37.8°F3.2°C 37.2°F2.9°C 98% Calm Calm -- 29.47 in998.0 mb 0.02 in0.5 mm 0.00 in0.0 mm 0.34 in8.6 mm
08:05 AM 37.9°F3.3°C 37.3°F2.9°C 98% Calm Calm -- 29.47 in998.0 mb 0.02 in0.5 mm 0.00 in0.0 mm 0.35 in8.9 mm
08:10 AM 38.0°F3.3°C 37.4°F3.0°C 98% Calm Calm -- 29.48 in998.3 mb 0.02 in0.5 mm 0.00 in0.0 mm 0.35 in8.9 mm
08:15 AM 38.0°F3.3°C 37.4°F3.0°C 98% 1.0 mph S1.6 kmh S 1.0 mph1.6 kmh 29.48 in998.3 mb 0.02 in0.5 mm 0.00 in0.0 mm 0.35 in8.9 mm
08:20 AM 38.0°F3.3°C 37.4°F3.0°C 98% 1.0 mph S1.6 kmh S 2.0 mph3.2 kmh 29.48 in998.3 mb 0.03 in0.8 mm 0.12 in3.0 mm 0.35 in8.9 mm
08:25 AM 38.0°F3.3°C 37.4°F3.0°C 98% Calm Calm 1.0 mph1.6 kmh 29.49 in998.6 mb 0.03 in0.8 mm 0.00 in0.0 mm 0.35 in8.9 mm
08:30 AM 38.2°F3.4°C 37.6°F3.1°C 98% Calm Calm 1.0 mph1.6 kmh 29.49 in998.6 mb 0.03 in0.8 mm 0.00 in0.0 mm 0.35 in8.9 mm
08:35 AM 38.1°F3.4°C 37.5°F3.1°C 98% Calm Calm 1.0 mph1.6 kmh 29.49 in998.6 mb 0.04 in1.0 mm 0.12 in3.0 mm 0.36 in9.1 mm
08:40 AM 38.1°F3.4°C 37.5°F3.1°C 98% Calm Calm 1.0 mph1.6 kmh 29.49 in998.6 mb 0.05 in1.3 mm 0.12 in3.0 mm 0.37 in9.4 mm
08:45 AM 38.2°F3.4°C 37.6°F3.1°C 98% Calm Calm -- 29.50 in999.0 mb 0.05 in1.3 mm 0.00 in0.0 mm 0.38 in9.7 mm
08:50 AM 38.3°F3.5°C 37.7°F3.2°C 98% 1.0 mph S1.6 kmh S 1.0 mph1.6 kmh 29.50 in999.0 mb 0.05 in1.3 mm 0.00 in0.0 mm 0.38 in9.7 mm
08:55 AM 38.2°F3.4°C 37.6°F3.1°C 98% Calm Calm 1.0 mph1.6 kmh 29.50 in999.0 mb 0.05 in1.3 mm 0.00 in0.0 mm 0.39 in9.9 mm
09:00 AM 38.2°F3.4°C 37.6°F3.1°C 98% Calm Calm -- 29.50 in999.0 mb 0.05 in1.3 mm 0.00 in0.0 mm 0.39 in9.9 mm
09:05 AM 38.4°F3.6°C 37.8°F3.2°C 98% Calm Calm -- 29.50 in999.0 mb 0.04 in1.0 mm 0.00 in0.0 mm 0.39 in9.9 mm
09:10 AM 38.5°F3.6°C 37.9°F3.3°C 98% Calm Calm -- 29.51 in999.3 mb 0.05 in1.3 mm 0.12 in3.0 mm 0.39 in9.9 mm
09:15 AM 38.4°F3.6°C 37.8°F3.2°C 98% Calm Calm 3.0 mph4.8 kmh 29.51 in999.3 mb 0.05 in1.3 mm 0.00 in0.0 mm 0.39 in9.9 mm
09:20 AM 38.2°F3.4°C 37.4°F3.0°C 97% Calm Calm 1.0 mph1.6 kmh 29.51 in999.3 mb 0.04 in1.0 mm 0.00 in0.0 mm 0.39 in9.9 mm
09:25 AM 38.3°F3.5°C 37.5°F3.1°C 97% Calm Calm 4.0 mph6.4 kmh 29.51 in999.3 mb 0.04 in1.0 mm 0.00 in0.0 mm 0.39 in9.9 mm
09:30 AM 38.1°F3.4°C 37.3°F2.9°C 97% Calm Calm 1.0 mph1.6 kmh 29.52 in999.7 mb 0.04 in1.0 mm 0.00 in0.0 mm 0.39 in9.9 mm
09:35 AM 37.8°F3.2°C 37.0°F2.8°C 97% 2.0 mph SW3.2 kmh SW 5.0 mph8.0 kmh 29.52 in999.7 mb 0.03 in0.8 mm 0.00 in0.0 mm 0.39 in9.9 mm
09:40 AM 37.7°F3.2°C 36.9°F2.7°C 97% 1.0 mph S1.6 kmh S 1.0 mph1.6 kmh 29.52 in999.7 mb 0.03 in0.8 mm 0.00 in0.0 mm 0.40 in10.2 mm
09:45 AM 37.7°F3.2°C 36.9°F2.7°C 97% Calm Calm 1.0 mph1.6 kmh 29.52 in999.7 mb 0.02 in0.5 mm 0.00 in0.0 mm 0.40 in10.2 mm
09:50 AM 37.7°F3.2°C 36.9°F2.7°C 97% Calm Calm 2.0 mph3.2 kmh 29.52 in999.7 mb 0.02 in0.5 mm 0.00 in0.0 mm 0.40 in10.2 mm
09:55 AM 37.7°F3.2°C 36.9°F2.7°C 97% 2.0 mph S3.2 kmh S 2.0 mph3.2 kmh 29.52 in999.7 mb 0.02 in0.5 mm 0.00 in0.0 mm 0.41 in10.4 mm
10:00 AM 37.6°F3.1°C 36.8°F2.7°C 97% Calm Calm 3.0 mph4.8 kmh 29.53 in1000.0 mb 0.02 in0.5 mm 0.00 in0.0 mm 0.41 in10.4 mm
10:05 AM 37.7°F3.2°C 36.9°F2.7°C 97% Calm Calm 2.0 mph3.2 kmh 29.53 in1000.0 mb 0.02 in0.5 mm 0.00 in0.0 mm 0.41 in10.4 mm
10:10 AM 37.8°F3.2°C 37.0°F2.8°C 97% Calm Calm -- 29.53 in1000.0 mb 0.02 in0.5 mm 0.00 in0.0 mm 0.41 in10.4 mm
10:15 AM 37.7°F3.2°C 36.9°F2.7°C 97% Calm Calm 1.0 mph1.6 kmh 29.53 in1000.0 mb 0.02 in0.5 mm 0.00 in0.0 mm 0.42 in10.7 mm
10:20 AM 37.7°F3.2°C 36.9°F2.7°C 97% Calm Calm -- 29.54 in1000.3 mb 0.02 in0.5 mm 0.00 in0.0 mm 0.42 in10.7 mm
10:25 AM 37.6°F3.1°C 36.8°F2.7°C 97% Calm Calm 2.0 mph3.2 kmh 29.54 in1000.3 mb 0.02 in0.5 mm 0.00 in0.0 mm 0.42 in10.7 mm
10:30 AM 37.7°F3.2°C 36.9°F2.7°C 97% Calm Calm 1.0 mph1.6 kmh 29.54 in1000.3 mb 0.02 in0.5 mm 0.00 in0.0 mm 0.42 in10.7 mm
10:35 AM 37.6°F3.1°C 36.8°F2.7°C 97% Calm Calm 2.0 mph3.2 kmh 29.54 in1000.3 mb 0.03 in0.8 mm 0.12 in3.0 mm 0.43 in10.9 mm
10:40 AM 37.6°F3.1°C 36.8°F2.7°C 97% Calm Calm 1.0 mph1.6 kmh 29.55 in1000.7 mb 0.02 in0.5 mm 0.00 in0.0 mm 0.43 in10.9 mm
10:45 AM 37.6°F3.1°C 36.8°F2.7°C 97% Calm Calm 3.0 mph4.8 kmh 29.55 in1000.7 mb 0.02 in0.5 mm 0.00 in0.0 mm 0.43 in10.9 mm
10:50 AM 37.4°F3.0°C 36.6°F2.6°C 97% Calm Calm 2.0 mph3.2 kmh 29.55 in1000.7 mb 0.02 in0.5 mm 0.00 in0.0 mm 0.43 in10.9 mm
10:55 AM 37.3°F2.9°C 36.5°F2.5°C 97% Calm Calm 2.0 mph3.2 kmh 29.55 in1000.7 mb 0.02 in0.5 mm 0.00 in0.0 mm 0.43 in10.9 mm
11:00 AM 37.3°F2.9°C 36.5°F2.5°C 97% Calm Calm 1.0 mph1.6 kmh 29.55 in1000.7 mb 0.02 in0.5 mm 0.00 in0.0 mm 0.43 in10.9 mm
11:05 AM 37.3°F2.9°C 36.5°F2.5°C 97% Calm Calm -- 29.56 in1001.0 mb 0.02 in0.5 mm 0.00 in0.0 mm 0.43 in10.9 mm
11:10 AM 37.2°F2.9°C 36.4°F2.4°C 97% Calm Calm -- 29.56 in1001.0 mb 0.03 in0.8 mm 0.12 in3.0 mm 0.44 in11.2 mm
11:15 AM 37.2°F2.9°C 36.4°F2.4°C 97% 1.0 mph SSE1.6 kmh SSE 2.0 mph3.2 kmh 29.56 in1001.0 mb 0.02 in0.5 mm 0.00 in0.0 mm 0.44 in11.2 mm
11:20 AM 37.0°F2.8°C 35.9°F2.2°C 96% Calm Calm 1.0 mph1.6 kmh 29.56 in1001.0 mb 0.03 in0.8 mm 0.12 in3.0 mm 0.45 in11.4 mm
11:25 AM 36.9°F2.7°C 35.8°F2.1°C 96% Calm Calm 1.0 mph1.6 kmh 29.56 in1001.0 mb 0.03 in0.8 mm 0.00 in0.0 mm 0.45 in11.4 mm
11:30 AM 37.1°F2.8°C 36.3°F2.4°C 97% Calm Calm -- 29.57 in1001.4 mb 0.03 in0.8 mm 0.00 in0.0 mm 0.45 in11.4 mm
11:35 AM 37.0°F2.8°C 36.2°F2.3°C 97% Calm Calm -- 29.57 in1001.4 mb 0.03 in0.8 mm 0.00 in0.0 mm 0.46 in11.7 mm
11:40 AM 37.1°F2.8°C 36.3°F2.4°C 97% Calm Calm -- 29.57 in1001.4 mb 0.03 in0.8 mm 0.00 in0.0 mm 0.46 in11.7 mm
11:45 AM 37.1°F2.8°C 36.3°F2.4°C 97% Calm Calm -- 29.57 in1001.4 mb 0.03 in0.8 mm 0.00 in0.0 mm 0.46 in11.7 mm
11:50 AM 37.2°F2.9°C 36.4°F2.4°C 97% Calm Calm -- 29.57 in1001.4 mb 0.03 in0.8 mm 0.00 in0.0 mm 0.46 in11.7 mm
11:55 AM 37.0°F2.8°C 36.2°F2.3°C 97% Calm Calm -- 29.57 in1001.4 mb 0.03 in0.8 mm 0.00 in0.0 mm 0.46 in11.7 mm
12:00 PM 37.0°F2.8°C 35.9°F2.2°C 96% Calm Calm -- 29.58 in1001.7 mb 0.03 in0.8 mm 0.00 in0.0 mm 0.46 in11.7 mm
12:05 PM 36.9°F2.7°C 36.1°F2.3°C 97% Calm Calm -- 29.58 in1001.7 mb 0.03 in0.8 mm 0.00 in0.0 mm 0.46 in11.7 mm
12:10 PM 36.8°F2.7°C 36.0°F2.2°C 97% Calm Calm -- 29.58 in1001.7 mb 0.02 in0.5 mm 0.00 in0.0 mm 0.46 in11.7 mm
12:15 PM 36.6°F2.6°C 35.5°F1.9°C 96% Calm Calm 2.0 mph3.2 kmh 29.58 in1001.7 mb 0.02 in0.5 mm 0.00 in0.0 mm 0.46 in11.7 mm
12:20 PM 36.6°F2.6°C 35.8°F2.1°C 97% Calm Calm -- 29.58 in1001.7 mb 0.02 in0.5 mm 0.00 in0.0 mm 0.46 in11.7 mm
12:25 PM 36.5°F2.5°C 35.4°F1.9°C 96% Calm Calm 1.0 mph1.6 kmh 29.59 in1002.0 mb 0.02 in0.5 mm 0.00 in0.0 mm 0.46 in11.7 mm
12:30 PM 36.5°F2.5°C 35.7°F2.1°C 97% Calm Calm 1.0 mph1.6 kmh 29.59 in1002.0 mb 0.02 in0.5 mm 0.00 in0.0 mm 0.47 in11.9 mm
12:35 PM 36.5°F2.5°C 35.7°F2.1°C 97% Calm Calm -- 29.59 in1002.0 mb 0.02 in0.5 mm 0.00 in0.0 mm 0.47 in11.9 mm
12:40 PM 36.7°F2.6°C 35.9°F2.2°C 97% Calm Calm -- 29.59 in1002.0 mb 0.02 in0.5 mm 0.00 in0.0 mm 0.47 in11.9 mm
12:45 PM 36.6°F2.6°C 35.8°F2.1°C 97% Calm Calm -- 29.59 in1002.0 mb 0.02 in0.5 mm 0.00 in0.0 mm 0.47 in11.9 mm
12:50 PM 36.8°F2.7°C 36.0°F2.2°C 97% Calm Calm 1.0 mph1.6 kmh 29.59 in1002.0 mb 0.02 in0.5 mm 0.00 in0.0 mm 0.47 in11.9 mm
12:55 PM 37.1°F2.8°C 36.3°F2.4°C 97% Calm Calm 1.0 mph1.6 kmh 29.59 in1002.0 mb 0.01 in0.3 mm 0.00 in0.0 mm 0.47 in11.9 mm
01:00 PM 37.4°F3.0°C 36.6°F2.6°C 97% Calm Calm -- 29.60 in1002.4 mb 0.01 in0.3 mm 0.00 in0.0 mm 0.47 in11.9 mm
01:05 PM 37.8°F3.2°C 37.2°F2.9°C 98% Calm Calm -- 29.60 in1002.4 mb 0.01 in0.3 mm 0.00 in0.0 mm 0.47 in11.9 mm
01:10 PM 38.1°F3.4°C 37.5°F3.1°C 98% Calm Calm -- 29.60 in1002.4 mb 0.01 in0.3 mm 0.00 in0.0 mm 0.47 in11.9 mm
01:15 PM 38.3°F3.5°C 37.5°F3.1°C 97% Calm Calm -- 29.60 in1002.4 mb 0.01 in0.3 mm 0.00 in0.0 mm 0.47 in11.9 mm
01:20 PM 38.7°F3.7°C 37.9°F3.3°C 97% Calm Calm 1.0 mph1.6 kmh 29.60 in1002.4 mb 0.01 in0.3 mm 0.00 in0.0 mm 0.47 in11.9 mm
01:25 PM 39.1°F3.9°C 38.5°F3.6°C 98% Calm Calm 1.0 mph1.6 kmh 29.61 in1002.7 mb 0.01 in0.3 mm 0.00 in0.0 mm 0.47 in11.9 mm
01:30 PM 39.3°F4.1°C 38.5°F3.6°C 97% Calm Calm 1.0 mph1.6 kmh 29.61 in1002.7 mb 0.00 in0.0 mm 0.00 in0.0 mm 0.47 in11.9 mm
01:35 PM 39.6°F4.2°C 38.8°F3.8°C 97% Calm Calm 1.0 mph1.6 kmh 29.61 in1002.7 mb 0.00 in0.0 mm 0.00 in0.0 mm 0.47 in11.9 mm
01:40 PM 40.0°F4.4°C 39.2°F4.0°C 97% 1.0 mph S1.6 kmh S 2.0 mph3.2 kmh 29.61 in1002.7 mb 0.00 in0.0 mm 0.00 in0.0 mm 0.47 in11.9 mm
01:45 PM 40.2°F4.6°C 39.1°F3.9°C 96% Calm Calm 1.0 mph1.6 kmh 29.61 in1002.7 mb 0.00 in0.0 mm 0.00 in0.0 mm 0.47 in11.9 mm
01:50 PM 40.6°F4.8°C 39.5°F4.2°C 96% Calm Calm 1.0 mph1.6 kmh 29.61 in1002.7 mb 0.00 in0.0 mm 0.00 in0.0 mm 0.47 in11.9 mm
01:55 PM 41.0°F5.0°C 39.9°F4.4°C 96% Calm Calm 1.0 mph1.6 kmh 29.61 in1002.7 mb 0.00 in0.0 mm 0.00 in0.0 mm 0.47 in11.9 mm
02:00 PM 41.2°F5.1°C 39.8°F4.3°C 95% Calm Calm -- 29.61 in1002.7 mb 0.00 in0.0 mm 0.00 in0.0 mm 0.47 in11.9 mm
02:05 PM 41.1°F5.1°C 39.2°F4.0°C 93% Calm Calm 1.0 mph1.6 kmh 29.61 in1002.7 mb 0.00 in0.0 mm 0.00 in0.0 mm 0.47 in11.9 mm
02:10 PM 41.3°F5.2°C 39.4°F4.1°C 93% Calm Calm 1.0 mph1.6 kmh 29.61 in1002.7 mb 0.00 in0.0 mm 0.00 in0.0 mm 0.47 in11.9 mm
02:15 PM 41.6°F5.3°C 39.4°F4.1°C 92% Calm Calm 1.0 mph1.6 kmh 29.61 in1002.7 mb 0.00 in0.0 mm 0.00 in0.0 mm 0.47 in11.9 mm
02:20 PM 41.7°F5.4°C 39.2°F4.0°C 91% Calm Calm -- 29.62 in1003.0 mb 0.00 in0.0 mm 0.00 in0.0 mm 0.47 in11.9 mm
02:25 PM 42.0°F5.6°C 39.8°F4.3°C 92% Calm Calm -- 29.61 in1002.7 mb 0.00 in0.0 mm 0.00 in0.0 mm 0.47 in11.9 mm
02:30 PM 42.3°F5.7°C 39.5°F4.2°C 90% Calm Calm -- 29.61 in1002.7 mb 0.00 in0.0 mm 0.00 in0.0 mm 0.47 in11.9 mm
02:35 PM 42.4°F5.8°C 39.1°F3.9°C 88% Calm Calm -- 29.62 in1003.0 mb 0.00 in0.0 mm 0.00 in0.0 mm 0.47 in11.9 mm
02:40 PM 42.5°F5.8°C 38.9°F3.8°C 87% Calm Calm -- 29.61 in1002.7 mb 0.00 in0.0 mm 0.00 in0.0 mm 0.47 in11.9 mm
02:45 PM 42.8°F6.0°C 39.4°F4.1°C 88% Calm Calm -- 29.62 in1003.0 mb 0.00 in0.0 mm 0.00 in0.0 mm 0.47 in11.9 mm
02:50 PM 42.9°F6.1°C 39.5°F4.2°C 88% Calm Calm -- 29.62 in1003.0 mb 0.00 in0.0 mm 0.00 in0.0 mm 0.47 in11.9 mm
02:55 PM 42.9°F6.1°C 39.3°F4.1°C 87% Calm Calm -- 29.62 in1003.0 mb 0.00 in0.0 mm 0.00 in0.0 mm 0.47 in11.9 mm
03:00 PM 43.1°F6.2°C 39.4°F4.1°C 87% Calm Calm -- 29.62 in1003.0 mb 0.00 in0.0 mm 0.00 in0.0 mm 0.47 in11.9 mm
03:05 PM 43.2°F6.2°C 39.2°F4.0°C 86% Calm Calm 1.0 mph1.6 kmh 29.62 in1003.0 mb 0.00 in0.0 mm 0.00 in0.0 mm 0.47 in11.9 mm
03:10 PM 43.3°F6.3°C 39.3°F4.1°C 86% Calm Calm 2.0 mph3.2 kmh 29.62 in1003.0 mb 0.00 in0.0 mm 0.00 in0.0 mm 0.47 in11.9 mm
03:15 PM 43.6°F6.4°C 40.5°F4.7°C 89% Calm Calm -- 29.62 in1003.0 mb 0.00 in0.0 mm 0.00 in0.0 mm 0.47 in11.9 mm
03:20 PM 43.9°F6.6°C 40.5°F4.7°C 88% Calm Calm 1.0 mph1.6 kmh 29.62 in1003.0 mb 0.00 in0.0 mm 0.00 in0.0 mm 0.47 in11.9 mm
03:25 PM 43.9°F6.6°C 40.2°F4.6°C 87% 1.0 mph S1.6 kmh S 2.0 mph3.2 kmh 29.62 in1003.0 mb 0.00 in0.0 mm 0.00 in0.0 mm 0.47 in11.9 mm
03:30 PM 43.8°F6.6°C 39.8°F4.3°C 86% Calm Calm 1.0 mph1.6 kmh 29.62 in1003.0 mb 0.00 in0.0 mm 0.00 in0.0 mm 0.47 in11.9 mm
03:35 PM 43.9°F6.6°C 39.9°F4.4°C 86% 1.0 mph SE1.6 kmh SE 3.0 mph4.8 kmh 29.62 in1003.0 mb 0.00 in0.0 mm 0.00 in0.0 mm 0.47 in11.9 mm
03:40 PM 44.2°F6.8°C 40.8°F4.9°C 88% Calm Calm 2.0 mph3.2 kmh 29.63 in1003.4 mb 0.00 in0.0 mm 0.00 in0.0 mm 0.47 in11.9 mm
03:45 PM 44.2°F6.8°C 40.2°F4.6°C 86% Calm Calm 4.0 mph6.4 kmh 29.63 in1003.4 mb 0.00 in0.0 mm 0.00 in0.0 mm 0.47 in11.9 mm
03:50 PM 44.0°F6.7°C 39.7°F4.3°C 85% Calm Calm 6.0 mph9.7 kmh 29.63 in1003.4 mb 0.00 in0.0 mm 0.00 in0.0 mm 0.47 in11.9 mm
03:55 PM 44.0°F6.7°C 40.0°F4.4°C 86% Calm Calm 3.0 mph4.8 kmh 29.63 in1003.4 mb 0.00 in0.0 mm 0.00 in0.0 mm 0.47 in11.9 mm
04:00 PM 44.0°F6.7°C 40.0°F4.4°C 86% Calm Calm 3.0 mph4.8 kmh 29.63 in1003.4 mb 0.00 in0.0 mm 0.00 in0.0 mm 0.47 in11.9 mm
04:05 PM 44.0°F6.7°C 40.0°F4.4°C 86% Calm Calm 2.0 mph3.2 kmh 29.63 in1003.4 mb 0.00 in0.0 mm 0.00 in0.0 mm 0.47 in11.9 mm
04:10 PM 44.0°F6.7°C 39.7°F4.3°C 85% Calm Calm 3.0 mph4.8 kmh 29.63 in1003.4 mb 0.00 in0.0 mm 0.00 in0.0 mm 0.47 in11.9 mm
04:15 PM 43.9°F6.6°C 39.6°F4.2°C 85% Calm Calm 1.0 mph1.6 kmh 29.63 in1003.4 mb 0.00 in0.0 mm 0.00 in0.0 mm 0.47 in11.9 mm
04:20 PM 43.8°F6.6°C 39.5°F4.2°C 85% Calm Calm 1.0 mph1.6 kmh 29.63 in1003.4 mb 0.00 in0.0 mm 0.00 in0.0 mm 0.47 in11.9 mm
04:25 PM 43.8°F6.6°C 39.5°F4.2°C 85% 2.0 mph S3.2 kmh S 3.0 mph4.8 kmh 29.63 in1003.4 mb 0.00 in0.0 mm 0.00 in0.0 mm 0.47 in11.9 mm
04:30 PM 43.8°F6.6°C 39.2°F4.0°C 84% Calm Calm 3.0 mph4.8 kmh 29.64 in1003.7 mb 0.00 in0.0 mm 0.00 in0.0 mm 0.47 in11.9 mm
04:35 PM 43.8°F6.6°C 38.9°F3.8°C 83% 1.0 mph S1.6 kmh S 4.0 mph6.4 kmh 29.64 in1003.7 mb 0.00 in0.0 mm 0.00 in0.0 mm 0.47 in11.9 mm
04:40 PM 43.8°F6.6°C 39.2°F4.0°C 84% Calm Calm 2.0 mph3.2 kmh 29.64 in1003.7 mb 0.00 in0.0 mm 0.00 in0.0 mm 0.47 in11.9 mm
04:45 PM 44.0°F6.7°C 39.4°F4.1°C 84% Calm Calm 2.0 mph3.2 kmh 29.64 in1003.7 mb 0.00 in0.0 mm 0.00 in0.0 mm 0.47 in11.9 mm
04:50 PM 44.2°F6.8°C 39.9°F4.4°C 85% Calm Calm 1.0 mph1.6 kmh 29.64 in1003.7 mb 0.00 in0.0 mm 0.00 in0.0 mm 0.47 in11.9 mm
04:55 PM 44.2°F6.8°C 39.3°F4.1°C 83% Calm Calm 2.0 mph3.2 kmh 29.64 in1003.7 mb 0.00 in0.0 mm 0.00 in0.0 mm 0.47 in11.9 mm
05:00 PM 44.1°F6.7°C 38.9°F3.8°C 82% 2.0 mph S3.2 kmh S 4.0 mph6.4 kmh 29.64 in1003.7 mb 0.00 in0.0 mm 0.00 in0.0 mm 0.47 in11.9 mm
05:05 PM 44.0°F6.7°C 38.2°F3.4°C 80% 1.0 mph S1.6 kmh S 2.0 mph3.2 kmh 29.65 in1004.1 mb 0.00 in0.0 mm 0.00 in0.0 mm 0.47 in11.9 mm
05:10 PM 43.9°F6.6°C 38.4°F3.6°C 81% 1.0 mph S1.6 kmh S 3.0 mph4.8 kmh 29.65 in1004.1 mb 0.00 in0.0 mm 0.00 in0.0 mm 0.47 in11.9 mm
05:15 PM 43.8°F6.6°C 38.3°F3.5°C 81% Calm Calm 2.0 mph3.2 kmh 29.65 in1004.1 mb 0.00 in0.0 mm 0.00 in0.0 mm 0.47 in11.9 mm
05:20 PM 43.7°F6.5°C 38.5°F3.6°C 82% Calm Calm 1.0 mph1.6 kmh 29.65 in1004.1 mb 0.00 in0.0 mm 0.00 in0.0 mm 0.47 in11.9 mm
05:25 PM 43.4°F6.3°C 39.1°F3.9°C 85% Calm Calm -- 29.65 in1004.1 mb 0.00 in0.0 mm 0.00 in0.0 mm 0.47 in11.9 mm
05:30 PM 43.0°F6.1°C 39.3°F4.1°C 87% Calm Calm -- 29.65 in1004.1 mb 0.00 in0.0 mm 0.00 in0.0 mm 0.47 in11.9 mm
05:35 PM 42.7°F5.9°C 39.3°F4.1°C 88% Calm Calm -- 29.65 in1004.1 mb 0.00 in0.0 mm 0.00 in0.0 mm 0.47 in11.9 mm
05:40 PM 42.5°F5.8°C 39.7°F4.3°C 90% Calm Calm -- 29.65 in1004.1 mb 0.00 in0.0 mm 0.00 in0.0 mm 0.47 in11.9 mm
05:45 PM 42.3°F5.7°C 39.5°F4.2°C 90% Calm Calm -- 29.65 in1004.1 mb 0.00 in0.0 mm 0.00 in0.0 mm 0.47 in11.9 mm
05:50 PM 42.2°F5.7°C 39.7°F4.3°C 91% Calm Calm -- 29.65 in1004.1 mb 0.00 in0.0 mm 0.00 in0.0 mm 0.47 in11.9 mm
05:55 PM 42.2°F5.7°C 40.0°F4.4°C 92% Calm Calm -- 29.65 in1004.1 mb 0.00 in0.0 mm 0.00 in0.0 mm 0.47 in11.9 mm
06:00 PM 42.2°F5.7°C 40.3°F4.6°C 93% Calm Calm -- 29.66 in1004.4 mb 0.00 in0.0 mm 0.00 in0.0 mm 0.47 in11.9 mm
06:05 PM 42.1°F5.6°C 40.2°F4.6°C 93% Calm Calm -- 29.66 in1004.4 mb 0.00 in0.0 mm 0.00 in0.0 mm 0.47 in11.9 mm
06:10 PM 42.0°F5.6°C 40.1°F4.5°C 93% Calm Calm -- 29.66 in1004.4 mb 0.00 in0.0 mm 0.00 in0.0 mm 0.47 in11.9 mm
06:15 PM 41.8°F5.4°C 39.9°F4.4°C 93% Calm Calm -- 29.66 in1004.4 mb 0.00 in0.0 mm 0.00 in0.0 mm 0.47 in11.9 mm
06:20 PM 41.7°F5.4°C 39.8°F4.3°C 93% Calm Calm -- 29.66 in1004.4 mb 0.00 in0.0 mm 0.00 in0.0 mm 0.47 in11.9 mm
06:25 PM 41.5°F5.3°C 39.9°F4.4°C 94% Calm Calm -- 29.66 in1004.4 mb 0.00 in0.0 mm 0.00 in0.0 mm 0.47 in11.9 mm
06:30 PM 41.5°F5.3°C 39.9°F4.4°C 94% Calm Calm -- 29.66 in1004.4 mb 0.00 in0.0 mm 0.00 in0.0 mm 0.47 in11.9 mm
06:35 PM 41.3°F5.2°C 39.7°F4.3°C 94% Calm Calm -- 29.67 in1004.7 mb 0.00 in0.0 mm 0.00 in0.0 mm 0.47 in11.9 mm
06:40 PM 41.3°F5.2°C 39.7°F4.3°C 94% Calm Calm -- 29.67 in1004.7 mb 0.00 in0.0 mm 0.00 in0.0 mm 0.47 in11.9 mm
06:45 PM 41.1°F5.1°C 39.5°F4.2°C 94% Calm Calm -- 29.67 in1004.7 mb 0.00 in0.0 mm 0.00 in0.0 mm 0.47 in11.9 mm
06:50 PM 40.8°F4.9°C 39.2°F4.0°C 94% Calm Calm 1.0 mph1.6 kmh 29.67 in1004.7 mb 0.00 in0.0 mm 0.00 in0.0 mm 0.47 in11.9 mm
06:55 PM 40.6°F4.8°C 39.0°F3.9°C 94% Calm Calm -- 29.67 in1004.7 mb 0.00 in0.0 mm 0.00 in0.0 mm 0.47 in11.9 mm
07:00 PM 40.4°F4.7°C 38.8°F3.8°C 94% Calm Calm 1.0 mph1.6 kmh 29.67 in1004.7 mb 0.00 in0.0 mm 0.00 in0.0 mm 0.47 in11.9 mm
07:05 PM 40.2°F4.6°C 38.6°F3.7°C 94% Calm Calm 1.0 mph1.6 kmh 29.67 in1004.7 mb 0.00 in0.0 mm 0.00 in0.0 mm 0.47 in11.9 mm
07:10 PM 40.0°F4.4°C 38.4°F3.6°C 94% Calm Calm 1.0 mph1.6 kmh 29.67 in1004.7 mb 0.00 in0.0 mm 0.00 in0.0 mm 0.47 in11.9 mm
07:15 PM 39.8°F4.3°C 38.2°F3.4°C 94% Calm Calm 1.0 mph1.6 kmh 29.68 in1005.1 mb 0.00 in0.0 mm 0.00 in0.0 mm 0.47 in11.9 mm
07:20 PM 39.6°F4.2°C 38.2°F3.4°C 95% Calm Calm 1.0 mph1.6 kmh 29.68 in1005.1 mb 0.00 in0.0 mm 0.00 in0.0 mm 0.47 in11.9 mm
07:25 PM 39.3°F4.1°C 37.7°F3.2°C 94% Calm Calm 1.0 mph1.6 kmh 29.68 in1005.1 mb 0.00 in0.0 mm 0.00 in0.0 mm 0.47 in11.9 mm
07:30 PM 39.0°F3.9°C 37.6°F3.1°C 95% Calm Calm 1.0 mph1.6 kmh 29.69 in1005.4 mb 0.00 in0.0 mm 0.00 in0.0 mm 0.47 in11.9 mm
07:35 PM 38.7°F3.7°C 37.3°F2.9°C 95% Calm Calm 1.0 mph1.6 kmh 29.69 in1005.4 mb 0.00 in0.0 mm 0.00 in0.0 mm 0.47 in11.9 mm
07:40 PM 38.5°F3.6°C 37.1°F2.8°C 95% Calm Calm 1.0 mph1.6 kmh 29.69 in1005.4 mb 0.00 in0.0 mm 0.00 in0.0 mm 0.47 in11.9 mm
07:45 PM 38.3°F3.5°C 36.9°F2.7°C 95% Calm Calm 1.0 mph1.6 kmh 29.69 in1005.4 mb 0.00 in0.0 mm 0.00 in0.0 mm 0.47 in11.9 mm
07:50 PM 38.1°F3.4°C 36.7°F2.6°C 95% Calm Calm 1.0 mph1.6 kmh 29.69 in1005.4 mb 0.00 in0.0 mm 0.00 in0.0 mm 0.47 in11.9 mm
07:55 PM 37.9°F3.3°C 36.5°F2.5°C 95% Calm Calm 1.0 mph1.6 kmh 29.69 in1005.4 mb 0.00 in0.0 mm 0.00 in0.0 mm 0.47 in11.9 mm
08:00 PM 37.7°F3.2°C 36.3°F2.4°C 95% Calm Calm 1.0 mph1.6 kmh 29.69 in1005.4 mb 0.00 in0.0 mm 0.00 in0.0 mm 0.47 in11.9 mm
08:05 PM 37.5°F3.1°C 36.1°F2.3°C 95% Calm Calm 1.0 mph1.6 kmh 29.69 in1005.4 mb 0.00 in0.0 mm 0.00 in0.0 mm 0.47 in11.9 mm
08:10 PM 37.3°F2.9°C 36.0°F2.2°C 95% Calm Calm 1.0 mph1.6 kmh 29.69 in1005.4 mb 0.00 in0.0 mm 0.00 in0.0 mm 0.47 in11.9 mm
08:15 PM 37.1°F2.8°C 35.8°F2.1°C 95% Calm Calm 1.0 mph1.6 kmh 29.70 in1005.8 mb 0.00 in0.0 mm 0.00 in0.0 mm 0.47 in11.9 mm
08:20 PM 37.0°F2.8°C 35.7°F2.1°C 95% Calm Calm -- 29.70 in1005.8 mb 0.00 in0.0 mm 0.00 in0.0 mm 0.47 in11.9 mm
08:25 PM 36.8°F2.7°C 35.5°F1.9°C 95% Calm Calm -- 29.70 in1005.8 mb 0.00 in0.0 mm 0.00 in0.0 mm 0.47 in11.9 mm
08:30 PM 36.7°F2.6°C 35.6°F2.0°C 96% Calm Calm -- 29.70 in1005.8 mb 0.00 in0.0 mm 0.00 in0.0 mm 0.47 in11.9 mm
08:35 PM 36.6°F2.6°C 35.5°F1.9°C 96% Calm Calm 1.0 mph1.6 kmh 29.70 in1005.8 mb 0.00 in0.0 mm 0.00 in0.0 mm 0.47 in11.9 mm
08:40 PM 37.0°F2.8°C 35.9°F2.2°C 96% Calm Calm 1.0 mph1.6 kmh 29.71 in1006.1 mb 0.00 in0.0 mm 0.00 in0.0 mm 0.47 in11.9 mm
08:45 PM 37.1°F2.8°C 35.8°F2.1°C 95% Calm Calm 2.0 mph3.2 kmh 29.71 in1006.1 mb 0.00 in0.0 mm 0.00 in0.0 mm 0.47 in11.9 mm
08:50 PM 36.7°F2.6°C 35.4°F1.9°C 95% Calm Calm 1.0 mph1.6 kmh 29.71 in1006.1 mb 0.00 in0.0 mm 0.00 in0.0 mm 0.47 in11.9 mm
08:55 PM 36.5°F2.5°C 35.2°F1.8°C 95% Calm Calm 1.0 mph1.6 kmh 29.71 in1006.1 mb 0.00 in0.0 mm 0.00 in0.0 mm 0.47 in11.9 mm
09:00 PM 36.4°F2.4°C 35.1°F1.7°C 95% Calm Calm 1.0 mph1.6 kmh 29.71 in1006.1 mb 0.00 in0.0 mm 0.00 in0.0 mm 0.47 in11.9 mm
09:05 PM 36.5°F2.5°C 35.4°F1.9°C 96% Calm Calm 1.0 mph1.6 kmh 29.71 in1006.1 mb 0.00 in0.0 mm 0.00 in0.0 mm 0.47 in11.9 mm
09:10 PM 36.6°F2.6°C 35.5°F1.9°C 96% Calm Calm 1.0 mph1.6 kmh 29.71 in1006.1 mb 0.00 in0.0 mm 0.00 in0.0 mm 0.47 in11.9 mm
09:15 PM 36.7°F2.6°C 35.6°F2.0°C 96% Calm Calm 1.0 mph1.6 kmh 29.71 in1006.1 mb 0.00 in0.0 mm 0.00 in0.0 mm 0.47 in11.9 mm
09:20 PM 36.8°F2.7°C 35.7°F2.1°C 96% Calm Calm -- 29.71 in1006.1 mb 0.00 in0.0 mm 0.00 in0.0 mm 0.47 in11.9 mm
09:25 PM 36.8°F2.7°C 35.5°F1.9°C 95% Calm Calm -- 29.71 in1006.1 mb 0.00 in0.0 mm 0.00 in0.0 mm 0.47 in11.9 mm
09:30 PM 36.7°F2.6°C 35.4°F1.9°C 95% Calm Calm 1.0 mph1.6 kmh 29.71 in1006.1 mb 0.00 in0.0 mm 0.00 in0.0 mm 0.47 in11.9 mm
09:35 PM 36.5°F2.5°C 35.2°F1.8°C 95% Calm Calm -- 29.71 in1006.1 mb 0.00 in0.0 mm 0.00 in0.0 mm 0.47 in11.9 mm
09:40 PM 36.4°F2.4°C 35.1°F1.7°C 95% Calm Calm -- 29.72 in1006.4 mb 0.00 in0.0 mm 0.00 in0.0 mm 0.47 in11.9 mm
09:45 PM 36.3°F2.4°C 35.0°F1.7°C 95% Calm Calm -- 29.72 in1006.4 mb 0.00 in0.0 mm 0.00 in0.0 mm 0.47 in11.9 mm
09:50 PM 36.2°F2.3°C 35.1°F1.7°C 96% Calm Calm -- 29.72 in1006.4 mb 0.00 in0.0 mm 0.00 in0.0 mm 0.47 in11.9 mm
09:55 PM 36.2°F2.3°C 35.1°F1.7°C 96% Calm Calm 1.0 mph1.6 kmh 29.72 in1006.4 mb 0.00 in0.0 mm 0.00 in0.0 mm 0.47 in11.9 mm
10:00 PM 36.2°F2.3°C 35.1°F1.7°C 96% Calm Calm -- 29.72 in1006.4 mb 0.00 in0.0 mm 0.00 in0.0 mm 0.47 in11.9 mm
10:05 PM 36.2°F2.3°C 35.1°F1.7°C 96% Calm Calm -- 29.72 in1006.4 mb 0.00 in0.0 mm 0.00 in0.0 mm 0.47 in11.9 mm
10:10 PM 36.1°F2.3°C 35.0°F1.7°C 96% Calm Calm -- 29.72 in1006.4 mb 0.00 in0.0 mm 0.00 in0.0 mm 0.47 in11.9 mm
10:15 PM 36.1°F2.3°C 35.0°F1.7°C 96% Calm Calm -- 29.72 in1006.4 mb 0.00 in0.0 mm 0.00 in0.0 mm 0.47 in11.9 mm
10:20 PM 36.1°F2.3°C 35.0°F1.7°C 96% Calm Calm 1.0 mph1.6 kmh 29.72 in1006.4 mb 0.00 in0.0 mm 0.00 in0.0 mm 0.47 in11.9 mm
10:25 PM 36.1°F2.3°C 35.0°F1.7°C 96% Calm Calm -- 29.73 in1006.8 mb 0.00 in0.0 mm 0.00 in0.0 mm 0.47 in11.9 mm
10:30 PM 36.1°F2.3°C 35.0°F1.7°C 96% Calm Calm -- 29.73 in1006.8 mb 0.00 in0.0 mm 0.00 in0.0 mm 0.47 in11.9 mm
10:35 PM 36.1°F2.3°C 35.0°F1.7°C 96% Calm Calm -- 29.73 in1006.8 mb 0.00 in0.0 mm 0.00 in0.0 mm 0.47 in11.9 mm
10:40 PM 36.1°F2.3°C 35.0°F1.7°C 96% Calm Calm -- 29.73 in1006.8 mb 0.00 in0.0 mm 0.00 in0.0 mm 0.47 in11.9 mm
10:45 PM 36.1°F2.3°C 35.0°F1.7°C 96% Calm Calm -- 29.73 in1006.8 mb 0.00 in0.0 mm 0.00 in0.0 mm 0.47 in11.9 mm
10:50 PM 35.9°F2.2°C 34.8°F1.6°C 96% Calm Calm -- 29.73 in1006.8 mb 0.00 in0.0 mm 0.00 in0.0 mm 0.47 in11.9 mm
10:55 PM 35.9°F2.2°C 34.8°F1.6°C 96% Calm Calm -- 29.73 in1006.8 mb 0.00 in0.0 mm 0.00 in0.0 mm 0.47 in11.9 mm
11:00 PM 36.0°F2.2°C 34.9°F1.6°C 96% Calm Calm -- 29.74 in1007.1 mb 0.00 in0.0 mm 0.00 in0.0 mm 0.47 in11.9 mm
11:05 PM 35.9°F2.2°C 34.8°F1.6°C 96% 1.0 mph SE1.6 kmh SE -- 29.74 in1007.1 mb 0.00 in0.0 mm 0.00 in0.0 mm 0.29 in7.4 mm
11:10 PM 36.0°F2.2°C 34.9°F1.6°C 96% Calm Calm 1.0 mph1.6 kmh 29.74 in1007.1 mb 0.00 in0.0 mm 0.00 in0.0 mm 0.29 in7.4 mm
11:15 PM 36.0°F2.2°C 34.9°F1.6°C 96% Calm Calm -- 29.74 in1007.1 mb 0.00 in0.0 mm 0.00 in0.0 mm 0.29 in7.4 mm
11:20 PM 36.0°F2.2°C 34.9°F1.6°C 96% Calm Calm -- 29.74 in1007.1 mb 0.00 in0.0 mm 0.00 in0.0 mm 0.29 in7.4 mm
11:25 PM 36.0°F2.2°C 34.9°F1.6°C 96% Calm Calm -- 29.74 in1007.1 mb 0.00 in0.0 mm 0.00 in0.0 mm 0.29 in7.4 mm
11:30 PM 35.9°F2.2°C 34.8°F1.6°C 96% Calm Calm 1.0 mph1.6 kmh 29.74 in1007.1 mb 0.00 in0.0 mm 0.00 in0.0 mm 0.29 in7.4 mm
11:35 PM 35.8°F2.1°C 34.7°F1.5°C 96% Calm Calm -- 29.75 in1007.5 mb 0.00 in0.0 mm 0.00 in0.0 mm 0.29 in7.4 mm
11:40 PM 35.7°F2.1°C 34.6°F1.4°C 96% Calm Calm -- 29.75 in1007.5 mb 0.00 in0.0 mm 0.00 in0.0 mm 0.29 in7.4 mm
11:45 PM 35.6°F2.0°C 34.5°F1.4°C 96% Calm Calm -- 29.75 in1007.5 mb 0.00 in0.0 mm 0.00 in0.0 mm 0.29 in7.4 mm
11:50 PM 35.5°F1.9°C 34.4°F1.3°C 96% Calm Calm -- 29.75 in1007.5 mb 0.00 in0.0 mm 0.00 in0.0 mm 0.29 in7.4 mm
11:55 PM 35.4°F1.9°C 34.3°F1.3°C 96% Calm Calm -- 29.75 in1007.5 mb 0.00 in0.0 mm 0.00 in0.0 mm 0.29 in7.4 mm